sensor_id;sensor_type;location;lat;lon;timestamp;pressure;altitude;pressure_sealevel;temperature;humidity
63554;BME280;49699;48.072;7.800;2022-09-21T00:02:01;100161.09;;;9.52;76.88
63554;BME280;49699;48.072;7.800;2022-09-21T00:04:27;100167.25;;;9.50;77.15
63554;BME280;49699;48.072;7.800;2022-09-21T00:06:52;100167.41;;;9.47;77.21
63554;BME280;49699;48.072;7.800;2022-09-21T00:09:17;100158.88;;;9.43;77.18
63554;BME280;49699;48.072;7.800;2022-09-21T00:11:43;100160.69;;;9.41;77.88
63554;BME280;49699;48.072;7.800;2022-09-21T00:14:11;100155.56;;;9.39;77.61
63554;BME280;49699;48.072;7.800;2022-09-21T00:16:38;100160.88;;;9.36;77.81
63554;BME280;49699;48.072;7.800;2022-09-21T00:19:04;100156.72;;;9.32;77.95
63554;BME280;49699;48.072;7.800;2022-09-21T00:21:31;100158.63;;;9.29;78.27
63554;BME280;49699;48.072;7.800;2022-09-21T00:23:57;100157.03;;;9.25;78.09
63554;BME280;49699;48.072;7.800;2022-09-21T00:26:25;100154.75;;;9.17;78.33
63554;BME280;49699;48.072;7.800;2022-09-21T00:28:55;100152.47;;;9.10;78.42
63554;BME280;49699;48.072;7.800;2022-09-21T00:31:22;100157.00;;;9.04;78.61
63554;BME280;49699;48.072;7.800;2022-09-21T00:33:48;100158.06;;;8.99;79.13
63554;BME280;49699;48.072;7.800;2022-09-21T00:36:16;100164.38;;;8.93;79.22
63554;BME280;49699;48.072;7.800;2022-09-21T00:38:43;100156.94;;;8.84;79.62
63554;BME280;49699;48.072;7.800;2022-09-21T00:41:10;100160.59;;;8.79;79.64
63554;BME280;49699;48.072;7.800;2022-09-21T00:43:41;100154.72;;;8.75;79.70
63554;BME280;49699;48.072;7.800;2022-09-21T00:46:28;100157.47;;;8.70;80.11
63554;BME280;49699;48.072;7.800;2022-09-21T00:48:54;100158.38;;;8.69;79.66
63554;BME280;49699;48.072;7.800;2022-09-21T00:51:20;100152.34;;;8.69;80.30
63554;BME280;49699;48.072;7.800;2022-09-21T00:53:47;100150.75;;;8.65;80.31
63554;BME280;49699;48.072;7.800;2022-09-21T00:56:16;100145.63;;;8.63;80.41
63554;BME280;49699;48.072;7.800;2022-09-21T00:58:48;100154.31;;;8.62;80.00
63554;BME280;49699;48.072;7.800;2022-09-21T01:01:15;100153.66;;;8.57;80.34
63554;BME280;49699;48.072;7.800;2022-09-21T01:03:43;100152.09;;;8.53;80.41
63554;BME280;49699;48.072;7.800;2022-09-21T01:06:14;100158.28;;;8.49;80.46
63554;BME280;49699;48.072;7.800;2022-09-21T01:08:41;100149.88;;;8.43;80.55
63554;BME280;49699;48.072;7.800;2022-09-21T01:14:16;100158.75;;;8.37;80.96
63554;BME280;49699;48.072;7.800;2022-09-21T01:17:09;100162.38;;;8.31;81.04
63554;BME280;49699;48.072;7.800;2022-09-21T01:29:10;100160.19;;;8.21;81.14
63554;BME280;49699;48.072;7.800;2022-09-21T01:31:13;100165.41;;;8.19;81.35
63554;BME280;49699;48.072;7.800;2022-09-21T01:33:46;100168.06;;;8.18;81.53
63554;BME280;49699;48.072;7.800;2022-09-21T01:36:15;100163.84;;;8.15;81.21
63554;BME280;49699;48.072;7.800;2022-09-21T01:38:55;100158.69;;;8.14;81.48
63554;BME280;49699;48.072;7.800;2022-09-21T01:41:26;100155.31;;;8.12;81.50
63554;BME280;49699;48.072;7.800;2022-09-21T01:43:56;100159.53;;;8.14;81.28
63554;BME280;49699;48.072;7.800;2022-09-21T01:46:26;100155.31;;;8.12;81.74
63554;BME280;49699;48.072;7.800;2022-09-21T01:48:56;100157.06;;;8.11;81.42
63554;BME280;49699;48.072;7.800;2022-09-21T01:51:26;100159.75;;;8.08;81.78
63554;BME280;49699;48.072;7.800;2022-09-21T01:54:10;100157.22;;;8.07;81.44
63554;BME280;49699;48.072;7.800;2022-09-21T01:57:18;100157.34;;;8.04;81.52
63554;BME280;49699;48.072;7.800;2022-09-21T01:59:50;100156.56;;;8.01;81.75
63554;BME280;49699;48.072;7.800;2022-09-21T02:02:21;100160.16;;;7.97;81.53
63554;BME280;49699;48.072;7.800;2022-09-21T02:04:49;100162.78;;;7.96;81.72
63554;BME280;49699;48.072;7.800;2022-09-21T02:07:16;100153.38;;;7.93;81.52
63554;BME280;49699;48.072;7.800;2022-09-21T02:09:42;100162.00;;;7.94;81.74
63554;BME280;49699;48.072;7.800;2022-09-21T02:12:07;100164.66;;;7.92;81.68
63554;BME280;49699;48.072;7.800;2022-09-21T02:14:34;100165.59;;;7.90;81.52
63554;BME280;49699;48.072;7.800;2022-09-21T02:17:25;100155.28;;;7.88;81.68
63554;BME280;49699;48.072;7.800;2022-09-21T02:23:08;100154.47;;;7.88;81.47
63554;BME280;49699;48.072;7.800;2022-09-21T02:28:44;100158.06;;;7.84;81.62
63554;BME280;49699;48.072;7.800;2022-09-21T02:31:23;100154.66;;;7.82;81.57
63554;BME280;49699;48.072;7.800;2022-09-21T02:33:57;100153.03;;;7.79;81.79
63554;BME280;49699;48.072;7.800;2022-09-21T02:36:57;100158.47;;;7.72;81.94
63554;BME280;49699;48.072;7.800;2022-09-21T02:39:38;100156.16;;;7.64;82.08
63554;BME280;49699;48.072;7.800;2022-09-21T02:42:13;100152.06;;;7.57;82.20
63554;BME280;49699;48.072;7.800;2022-09-21T02:44:53;100156.63;;;7.50;82.39
63554;BME280;49699;48.072;7.800;2022-09-21T02:47:25;100159.41;;;7.44;82.89
63554;BME280;49699;48.072;7.800;2022-09-21T02:49:57;100161.25;;;7.41;82.89
63554;BME280;49699;48.072;7.800;2022-09-21T02:52:23;100157.91;;;7.37;82.97
63554;BME280;49699;48.072;7.800;2022-09-21T02:54:52;100151.16;;;7.33;82.92
63554;BME280;49699;48.072;7.800;2022-09-21T02:57:19;100152.16;;;7.29;82.90
63554;BME280;49699;48.072;7.800;2022-09-21T02:59:46;100149.59;;;7.27;82.53
63554;BME280;49699;48.072;7.800;2022-09-21T03:02:12;100161.78;;;7.24;82.93
63554;BME280;49699;48.072;7.800;2022-09-21T03:04:39;100159.25;;;7.22;82.86
63554;BME280;49699;48.072;7.800;2022-09-21T03:07:06;100155.88;;;7.20;82.78
63554;BME280;49699;48.072;7.800;2022-09-21T03:09:32;100153.38;;;7.17;82.77
63554;BME280;49699;48.072;7.800;2022-09-21T03:11:57;100156.88;;;7.16;82.81
63554;BME280;49699;48.072;7.800;2022-09-21T03:14:22;100154.34;;;7.15;82.84
63554;BME280;49699;48.072;7.800;2022-09-21T03:16:48;100160.47;;;7.12;82.84
63554;BME280;49699;48.072;7.800;2022-09-21T03:19:13;100155.34;;;7.11;82.83
63554;BME280;49699;48.072;7.800;2022-09-21T03:21:40;100153.63;;;7.10;83.10
63554;BME280;49699;48.072;7.800;2022-09-21T03:24:05;100164.03;;;7.08;82.98
63554;BME280;49699;48.072;7.800;2022-09-21T03:26:31;100163.19;;;7.08;83.02
63554;BME280;49699;48.072;7.800;2022-09-21T03:28:57;100170.91;;;7.09;82.87
63554;BME280;49699;48.072;7.800;2022-09-21T03:31:23;100167.53;;;7.07;83.16
63554;BME280;49699;48.072;7.800;2022-09-21T03:33:48;100170.94;;;7.08;83.05
63554;BME280;49699;48.072;7.800;2022-09-21T03:36:14;100165.81;;;7.06;82.84
63554;BME280;49699;48.072;7.800;2022-09-21T03:38:39;100167.69;;;7.01;83.05
63554;BME280;49699;48.072;7.800;2022-09-21T03:41:05;100169.66;;;6.94;83.35
63554;BME280;49699;48.072;7.800;2022-09-21T03:43:31;100167.25;;;6.88;83.28
63554;BME280;49699;48.072;7.800;2022-09-21T03:45:56;100165.69;;;6.83;83.33
63554;BME280;49699;48.072;7.800;2022-09-21T03:48:22;100166.75;;;6.77;83.32
63554;BME280;49699;48.072;7.800;2022-09-21T03:50:47;100163.38;;;6.74;83.65
63554;BME280;49699;48.072;7.800;2022-09-21T03:53:13;100162.59;;;6.72;83.57
63554;BME280;49699;48.072;7.800;2022-09-21T03:55:39;100158.34;;;6.69;83.63
63554;BME280;49699;48.072;7.800;2022-09-21T03:58:04;100165.25;;;6.69;83.66
63554;BME280;49699;48.072;7.800;2022-09-21T04:00:30;100166.16;;;6.68;83.61
63554;BME280;49699;48.072;7.800;2022-09-21T04:02:56;100167.00;;;6.68;83.72
63554;BME280;49699;48.072;7.800;2022-09-21T04:05:22;100172.13;;;6.70;83.57
63554;BME280;49699;48.072;7.800;2022-09-21T04:07:47;100163.53;;;6.69;83.57
63554;BME280;49699;48.072;7.800;2022-09-21T04:10:17;100168.56;;;6.74;83.46
63554;BME280;49699;48.072;7.800;2022-09-21T04:12:44;100175.44;;;6.75;83.59
63554;BME280;49699;48.072;7.800;2022-09-21T04:15:15;100176.28;;;6.75;83.46
63554;BME280;49699;48.072;7.800;2022-09-21T04:17:44;100172.03;;;6.73;83.56
63554;BME280;49699;48.072;7.800;2022-09-21T04:20:09;100166.06;;;6.71;83.57
63554;BME280;49699;48.072;7.800;2022-09-21T04:22:35;100163.59;;;6.66;83.70
63554;BME280;49699;48.072;7.800;2022-09-21T04:25:04;100166.19;;;6.66;83.75
63554;BME280;49699;48.072;7.800;2022-09-21T04:27:31;100178.28;;;6.66;83.65
63554;BME280;49699;48.072;7.800;2022-09-21T04:29:58;100168.06;;;6.63;83.85
63554;BME280;49699;48.072;7.800;2022-09-21T04:32:23;100172.38;;;6.62;83.84
63554;BME280;49699;48.072;7.800;2022-09-21T04:34:49;100175.72;;;6.64;83.94
63554;BME280;49699;48.072;7.800;2022-09-21T04:37:15;100176.59;;;6.65;83.79
63554;BME280;49699;48.072;7.800;2022-09-21T04:39:40;100179.22;;;6.63;83.50
63554;BME280;49699;48.072;7.800;2022-09-21T04:42:06;100174.19;;;6.58;83.72
63554;BME280;49699;48.072;7.800;2022-09-21T04:44:31;100179.50;;;6.54;83.98
63554;BME280;49699;48.072;7.800;2022-09-21T04:46:57;100184.63;;;6.55;83.90
63554;BME280;49699;48.072;7.800;2022-09-21T04:49:23;100175.22;;;6.53;84.05
63554;BME280;49699;48.072;7.800;2022-09-21T04:51:48;100175.31;;;6.50;83.75
63554;BME280;49699;48.072;7.800;2022-09-21T04:54:14;100179.72;;;6.46;83.84
63554;BME280;49699;48.072;7.800;2022-09-21T04:56:40;100178.81;;;6.47;83.91
63554;BME280;49699;48.072;7.800;2022-09-21T04:59:05;100176.19;;;6.49;84.03
63554;BME280;49699;48.072;7.800;2022-09-21T05:01:31;100166.69;;;6.49;84.05
63554;BME280;49699;48.072;7.800;2022-09-21T05:03:56;100178.69;;;6.52;83.86
63554;BME280;49699;48.072;7.800;2022-09-21T05:06:32;100179.53;;;6.52;83.83
63554;BME280;49699;48.072;7.800;2022-09-21T05:08:57;100182.22;;;6.49;84.04
63554;BME280;49699;48.072;7.800;2022-09-21T05:11:42;100189.13;;;6.49;83.92
63554;BME280;49699;48.072;7.800;2022-09-21T05:14:08;100191.75;;;6.47;83.95
63554;BME280;49699;48.072;7.800;2022-09-21T05:16:34;100193.59;;;6.44;83.79
63554;BME280;49699;48.072;7.800;2022-09-21T05:18:59;100192.84;;;6.40;84.01
63554;BME280;49699;48.072;7.800;2022-09-21T05:21:25;100190.41;;;6.34;84.28
63554;BME280;49699;48.072;7.800;2022-09-21T05:23:51;100199.22;;;6.27;84.03
63554;BME280;49699;48.072;7.800;2022-09-21T05:26:16;100200.31;;;6.20;84.36
63554;BME280;49699;48.072;7.800;2022-09-21T05:28:42;100212.41;;;6.18;84.75
63554;BME280;49699;48.072;7.800;2022-09-21T05:37:00;100201.56;;;6.36;84.69
63554;BME280;49699;48.072;7.800;2022-09-21T05:39:28;100202.13;;;6.46;84.68
63554;BME280;49699;48.072;7.800;2022-09-21T05:41:53;100209.59;;;6.56;84.50
63554;BME280;49699;48.072;7.800;2022-09-21T05:44:19;100200.75;;;6.63;84.47
63554;BME280;49699;48.072;7.800;2022-09-21T05:47:06;100203.97;;;6.72;84.28
63554;BME280;49699;48.072;7.800;2022-09-21T05:49:39;100208.13;;;6.77;84.38
63554;BME280;49699;48.072;7.800;2022-09-21T05:52:19;100208.09;;;6.79;84.69
63554;BME280;49699;48.072;7.800;2022-09-21T06:00:19;100214.84;;;6.83;85.36
63554;BME280;49699;48.072;7.800;2022-09-21T06:05:20;100208.09;;;6.79;85.80
63554;BME280;49699;48.072;7.800;2022-09-21T06:07:45;100210.63;;;6.80;85.92
63554;BME280;49699;48.072;7.800;2022-09-21T06:10:12;100214.75;;;6.86;85.93
63554;BME280;49699;48.072;7.800;2022-09-21T06:12:38;100217.97;;;6.94;85.93
63554;BME280;49699;48.072;7.800;2022-09-21T06:15:05;100213.34;;;7.04;85.73
63554;BME280;49699;48.072;7.800;2022-09-21T06:17:31;100212.38;;;7.08;85.91
63554;BME280;49699;48.072;7.800;2022-09-21T06:19:57;100215.63;;;7.14;85.66
63554;BME280;49699;48.072;7.800;2022-09-21T06:22:22;100213.72;;;7.19;85.59
63554;BME280;49699;48.072;7.800;2022-09-21T06:24:48;100210.13;;;7.23;85.42
63554;BME280;49699;48.072;7.800;2022-09-21T06:27:13;100210.94;;;7.25;85.43
63554;BME280;49699;48.072;7.800;2022-09-21T06:29:39;100209.91;;;7.31;85.83
63554;BME280;49699;48.072;7.800;2022-09-21T06:32:04;100216.56;;;7.38;85.63
63554;BME280;49699;48.072;7.800;2022-09-21T06:34:30;100206.81;;;7.46;85.49
63554;BME280;49699;48.072;7.800;2022-09-21T06:36:56;100215.16;;;7.54;85.28
63554;BME280;49699;48.072;7.800;2022-09-21T06:39:21;100211.59;;;7.58;85.33
63554;BME280;49699;48.072;7.800;2022-09-21T06:41:47;100215.72;;;7.64;85.54
63554;BME280;49699;48.072;7.800;2022-09-21T06:44:14;100219.03;;;7.69;85.14
63554;BME280;49699;48.072;7.800;2022-09-21T06:46:39;100221.53;;;7.71;85.32
63554;BME280;49699;48.072;7.800;2022-09-21T06:49:05;100217.19;;;7.71;85.09
63554;BME280;49699;48.072;7.800;2022-09-21T06:51:31;100222.03;;;7.82;85.13
63554;BME280;49699;48.072;7.800;2022-09-21T06:53:57;100219.81;;;7.96;84.55
63554;BME280;49699;48.072;7.800;2022-09-21T06:56:23;100221.97;;;8.08;84.22
63554;BME280;49699;48.072;7.800;2022-09-21T06:58:49;100217.34;;;8.18;83.88
63554;BME280;49699;48.072;7.800;2022-09-21T07:01:16;100220.31;;;8.32;83.67
63554;BME280;49699;48.072;7.800;2022-09-21T07:03:42;100217.78;;;8.54;83.00
63554;BME280;49699;48.072;7.800;2022-09-21T07:06:09;100224.88;;;8.72;82.76
63554;BME280;49699;48.072;7.800;2022-09-21T07:08:40;100220.97;;;8.84;81.66
63554;BME280;49699;48.072;7.800;2022-09-21T07:11:06;100224.69;;;9.00;81.64
63554;BME280;49699;48.072;7.800;2022-09-21T07:13:32;100226.56;;;9.18;81.17
63554;BME280;49699;48.072;7.800;2022-09-21T07:16:01;100230.13;;;9.37;80.35
63554;BME280;49699;48.072;7.800;2022-09-21T07:18:26;100219.78;;;9.58;79.82
63554;BME280;49699;48.072;7.800;2022-09-21T07:20:52;100209.47;;;9.77;79.42
63554;BME280;49699;48.072;7.800;2022-09-21T07:23:18;100204.25;;;9.97;78.40
63554;BME280;49699;48.072;7.800;2022-09-21T07:25:46;100219.75;;;10.20;77.87
63554;BME280;49699;48.072;7.800;2022-09-21T07:28:16;100206.63;;;10.42;76.94
63554;BME280;49699;48.072;7.800;2022-09-21T07:30:42;100215.09;;;10.66;76.53
63554;BME280;49699;48.072;7.800;2022-09-21T07:33:08;100205.16;;;10.93;75.47
63554;BME280;49699;48.072;7.800;2022-09-21T07:35:33;100209.44;;;11.12;74.52
63554;BME280;49699;48.072;7.800;2022-09-21T07:38:01;100211.00;;;11.34;74.02
63554;BME280;49699;48.072;7.800;2022-09-21T07:40:28;100206.59;;;11.53;73.39
63554;BME280;49699;48.072;7.800;2022-09-21T07:42:57;100208.22;;;11.73;72.48
63554;BME280;49699;48.072;7.800;2022-09-21T07:45:24;100206.41;;;11.92;72.01
63554;BME280;49699;48.072;7.800;2022-09-21T07:47:49;100206.00;;;12.17;71.26
63554;BME280;49699;48.072;7.800;2022-09-21T07:50:19;100203.00;;;12.40;70.58
63554;BME280;49699;48.072;7.800;2022-09-21T07:52:44;100203.03;;;12.56;69.97
63554;BME280;49699;48.072;7.800;2022-09-21T07:55:10;100201.38;;;12.71;69.62
63554;BME280;49699;48.072;7.800;2022-09-21T07:57:35;100205.50;;;12.75;69.17
63554;BME280;49699;48.072;7.800;2022-09-21T08:00:19;100198.41;;;12.77;68.82
63554;BME280;49699;48.072;7.800;2022-09-21T08:02:45;100202.47;;;12.82;68.77
63554;BME280;49699;48.072;7.800;2022-09-21T08:05:10;100200.38;;;12.89;68.26
63554;BME280;49699;48.072;7.800;2022-09-21T08:07:36;100200.94;;;13.10;67.88
63554;BME280;49699;48.072;7.800;2022-09-21T08:10:01;100195.63;;;13.27;67.30
63554;BME280;49699;48.072;7.800;2022-09-21T08:12:27;100195.34;;;13.47;66.89
63554;BME280;49699;48.072;7.800;2022-09-21T08:14:52;100200.00;;;13.72;65.84
63554;BME280;49699;48.072;7.800;2022-09-21T08:17:18;100198.53;;;13.82;65.27
63554;BME280;49699;48.072;7.800;2022-09-21T08:19:43;100202.84;;;13.98;64.76
63554;BME280;49699;48.072;7.800;2022-09-21T08:22:08;100189.91;;;14.10;64.21
63554;BME280;49699;48.072;7.800;2022-09-21T08:24:35;100192.78;;;14.34;63.78
63554;BME280;49699;48.072;7.800;2022-09-21T08:27:01;100192.09;;;14.46;63.21
63554;BME280;49699;48.072;7.800;2022-09-21T08:29:27;100184.22;;;14.61;62.96
63554;BME280;49699;48.072;7.800;2022-09-21T08:31:53;100190.16;;;14.77;62.27
63554;BME280;49699;48.072;7.800;2022-09-21T08:34:19;100173.88;;;14.86;61.93
63554;BME280;49699;48.072;7.800;2022-09-21T08:36:45;100181.78;;;14.99;61.60
63554;BME280;49699;48.072;7.800;2022-09-21T08:39:11;100178.56;;;15.08;61.33
63554;BME280;49699;48.072;7.800;2022-09-21T08:44:27;100173.56;;;15.44;60.12
63554;BME280;49699;48.072;7.800;2022-09-21T08:47:03;100179.94;;;15.67;59.62
63554;BME280;49699;48.072;7.800;2022-09-21T08:49:34;100169.59;;;15.91;59.03
63554;BME280;49699;48.072;7.800;2022-09-21T08:52:12;100174.00;;;16.03;57.87
63554;BME280;49699;48.072;7.800;2022-09-21T08:54:46;100163.19;;;16.08;57.50
63554;BME280;49699;48.072;7.800;2022-09-21T08:57:14;100168.31;;;16.22;56.83
63554;BME280;49699;48.072;7.800;2022-09-21T08:59:42;100170.53;;;16.28;56.23
63554;BME280;49699;48.072;7.800;2022-09-21T09:02:26;100162.81;;;16.38;55.89
63554;BME280;49699;48.072;7.800;2022-09-21T09:13:49;100154.53;;;16.31;54.57
63554;BME280;49699;48.072;7.800;2022-09-21T09:18:59;100148.44;;;16.43;54.56
63554;BME280;49699;48.072;7.800;2022-09-21T09:21:38;100152.53;;;16.47;54.73
63554;BME280;49699;48.072;7.800;2022-09-21T09:27:40;100151.44;;;16.50;53.36
63554;BME280;49699;48.072;7.800;2022-09-21T09:32:18;100137.53;;;16.73;52.85
63554;BME280;49699;48.072;7.800;2022-09-21T09:37:49;100128.38;;;16.79;51.89
63554;BME280;49699;48.072;7.800;2022-09-21T09:40:22;100127.72;;;16.88;51.38
63554;BME280;49699;48.072;7.800;2022-09-21T09:46:01;100131.06;;;16.90;51.21
63554;BME280;49699;48.072;7.800;2022-09-21T09:51:37;100119.53;;;17.04;51.00
63554;BME280;49699;48.072;7.800;2022-09-21T09:54:12;100111.53;;;17.05;51.08
63554;BME280;49699;48.072;7.800;2022-09-21T09:56:38;100110.53;;;17.19;50.94
63554;BME280;49699;48.072;7.800;2022-09-21T09:59:04;100109.50;;;17.32;50.34
63554;BME280;49699;48.072;7.800;2022-09-21T10:04:16;100102.47;;;17.44;49.59
63554;BME280;49699;48.072;7.800;2022-09-21T10:06:42;100098.38;;;17.40;49.90
63554;BME280;49699;48.072;7.800;2022-09-21T10:11:45;100094.56;;;17.33;50.09
63554;BME280;49699;48.072;7.800;2022-09-21T10:14:17;100093.84;;;17.31;50.45
63554;BME280;49699;48.072;7.800;2022-09-21T10:16:43;100093.44;;;17.24;50.71
63554;BME280;49699;48.072;7.800;2022-09-21T10:19:21;100087.34;;;17.24;50.32
63554;BME280;49699;48.072;7.800;2022-09-21T10:21:53;100084.47;;;17.16;49.91
63554;BME280;49699;48.072;7.800;2022-09-21T10:24:37;100075.50;;;17.18;50.24
63554;BME280;49699;48.072;7.800;2022-09-21T10:27:13;100078.38;;;17.26;49.46
63554;BME280;49699;48.072;7.800;2022-09-21T10:29:44;100071.84;;;17.32;48.76
63554;BME280;49699;48.072;7.800;2022-09-21T10:34:42;100061.38;;;17.54;48.62
63554;BME280;49699;48.072;7.800;2022-09-21T10:37:29;100060.44;;;17.66;48.24
63554;BME280;49699;48.072;7.800;2022-09-21T10:39:57;100050.16;;;17.75;47.79
63554;BME280;49699;48.072;7.800;2022-09-21T10:42:23;100043.84;;;17.88;47.38
63554;BME280;49699;48.072;7.800;2022-09-21T10:45:02;100051.13;;;17.96;46.52
63554;BME280;49699;48.072;7.800;2022-09-21T10:50:00;100036.25;;;17.95;45.61
63554;BME280;49699;48.072;7.800;2022-09-21T10:52:37;100038.19;;;17.93;45.21
63554;BME280;49699;48.072;7.800;2022-09-21T10:55:05;100029.56;;;18.02;44.91
63554;BME280;49699;48.072;7.800;2022-09-21T10:57:32;100042.25;;;18.19;44.83
63554;BME280;49699;48.072;7.800;2022-09-21T11:00:32;100036.34;;;18.38;44.25
63554;BME280;49699;48.072;7.800;2022-09-21T11:03:35;100032.94;;;18.47;42.12
63554;BME280;49699;48.072;7.800;2022-09-21T11:06:15;100028.78;;;18.45;41.89
63554;BME280;49699;48.072;7.800;2022-09-21T11:09:05;100023.75;;;18.42;41.07
63554;BME280;49699;48.072;7.800;2022-09-21T11:11:41;100025.16;;;18.46;40.31
63554;BME280;49699;48.072;7.800;2022-09-21T11:16:59;100022.53;;;18.46;39.02
63554;BME280;49699;48.072;7.800;2022-09-21T11:24:49;100016.00;;;18.72;38.11
63554;BME280;49699;48.072;7.800;2022-09-21T11:27:23;100013.44;;;18.82;37.89
63554;BME280;49699;48.072;7.800;2022-09-21T11:41:13;100000.03;;;19.26;36.64
63554;BME280;49699;48.072;7.800;2022-09-21T11:46:31;99992.94;;;19.06;36.64
63554;BME280;49699;48.072;7.800;2022-09-21T11:49:24;99985.16;;;19.04;36.89
63554;BME280;49699;48.072;7.800;2022-09-21T11:57:05;99975.94;;;19.20;37.17
63554;BME280;49699;48.072;7.800;2022-09-21T11:59:58;99974.16;;;19.20;37.29
63554;BME280;49699;48.072;7.800;2022-09-21T12:19:09;99958.25;;;19.31;36.92
63554;BME280;49699;48.072;7.800;2022-09-21T12:21:39;99954.78;;;19.31;36.66
63554;BME280;49699;48.072;7.800;2022-09-21T12:24:16;99953.09;;;19.30;36.80
63554;BME280;49699;48.072;7.800;2022-09-21T12:26:46;99943.38;;;19.30;36.73
63554;BME280;49699;48.072;7.800;2022-09-21T12:29:27;99937.53;;;19.27;36.75
63554;BME280;49699;48.072;7.800;2022-09-21T12:32:06;99946.41;;;19.26;36.84
63554;BME280;49699;48.072;7.800;2022-09-21T12:34:45;99931.72;;;19.33;36.90
63554;BME280;49699;48.072;7.800;2022-09-21T12:37:18;99944.81;;;19.34;36.75
63554;BME280;49699;48.072;7.800;2022-09-21T12:39:58;99933.91;;;19.28;36.65
63554;BME280;49699;48.072;7.800;2022-09-21T12:45:15;99929.53;;;19.17;37.20
63554;BME280;49699;48.072;7.800;2022-09-21T12:47:51;99938.03;;;19.21;37.02
63554;BME280;49699;48.072;7.800;2022-09-21T12:50:37;99933.47;;;19.23;36.89
63554;BME280;49699;48.072;7.800;2022-09-21T12:53:05;99933.72;;;19.20;36.79
63554;BME280;49699;48.072;7.800;2022-09-21T13:04:36;99934.53;;;19.11;36.87
63554;BME280;49699;48.072;7.800;2022-09-21T13:09:45;99923.72;;;19.14;36.67
63554;BME280;49699;48.072;7.800;2022-09-21T13:12:21;99922.75;;;19.15;36.82
63554;BME280;49699;48.072;7.800;2022-09-21T13:14:52;99919.81;;;19.18;36.87
63554;BME280;49699;48.072;7.800;2022-09-21T13:17:21;99921.13;;;19.23;36.81
63554;BME280;49699;48.072;7.800;2022-09-21T13:20:03;99922.53;;;19.27;36.84
63554;BME280;49699;48.072;7.800;2022-09-21T13:22:32;99918.94;;;19.28;36.38
63554;BME280;49699;48.072;7.800;2022-09-21T13:30:44;99920.22;;;19.34;36.73
63554;BME280;49699;48.072;7.800;2022-09-21T13:38:25;99912.44;;;19.42;36.70
63554;BME280;49699;48.072;7.800;2022-09-21T13:43:48;99909.28;;;19.48;36.54
63554;BME280;49699;48.072;7.800;2022-09-21T13:46:48;99909.72;;;19.53;36.56
63554;BME280;49699;48.072;7.800;2022-09-21T13:54:58;99901.81;;;19.53;37.03
63554;BME280;49699;48.072;7.800;2022-09-21T14:08:03;99905.25;;;19.44;36.69
63554;BME280;49699;48.072;7.800;2022-09-21T14:10:32;99889.41;;;19.44;36.79
63554;BME280;49699;48.072;7.800;2022-09-21T14:13:02;99893.41;;;19.38;36.75
63554;BME280;49699;48.072;7.800;2022-09-21T14:15:34;99901.56;;;19.35;37.12
63554;BME280;49699;48.072;7.800;2022-09-21T14:20:39;99903.44;;;19.45;37.28
63554;BME280;49699;48.072;7.800;2022-09-21T14:23:26;99902.59;;;19.44;37.08
63554;BME280;49699;48.072;7.800;2022-09-21T14:25:57;99900.22;;;19.41;37.18
63554;BME280;49699;48.072;7.800;2022-09-21T14:28:33;99904.78;;;19.39;37.39
63554;BME280;49699;48.072;7.800;2022-09-21T14:31:15;99904.22;;;19.35;37.13
63554;BME280;49699;48.072;7.800;2022-09-21T14:33:47;99902.56;;;19.34;36.89
63554;BME280;49699;48.072;7.800;2022-09-21T14:36:33;99900.31;;;19.30;37.12
63554;BME280;49699;48.072;7.800;2022-09-21T14:39:04;99912.56;;;19.31;37.21
63554;BME280;49699;48.072;7.800;2022-09-21T14:41:42;99907.41;;;19.29;36.90
63554;BME280;49699;48.072;7.800;2022-09-21T14:44:20;99904.50;;;19.32;37.08
63554;BME280;49699;48.072;7.800;2022-09-21T14:49:39;99901.81;;;19.23;37.10
63554;BME280;49699;48.072;7.800;2022-09-21T14:52:22;99901.44;;;19.06;37.28
63554;BME280;49699;48.072;7.800;2022-09-21T14:57:46;99895.56;;;18.93;37.19
63554;BME280;49699;48.072;7.800;2022-09-21T15:00:22;99897.47;;;18.91;37.39
63554;BME280;49699;48.072;7.800;2022-09-21T15:05:37;99896.44;;;18.83;37.67
63554;BME280;49699;48.072;7.800;2022-09-21T15:11:21;99895.78;;;18.81;37.61
63554;BME280;49699;48.072;7.800;2022-09-21T15:16:45;99892.81;;;18.74;37.63
63554;BME280;49699;48.072;7.800;2022-09-21T15:19:14;99897.75;;;18.67;37.83
63554;BME280;49699;48.072;7.800;2022-09-21T15:21:43;99897.16;;;18.64;37.88
63554;BME280;49699;48.072;7.800;2022-09-21T15:24:18;99906.88;;;18.63;38.04
63554;BME280;49699;48.072;7.800;2022-09-21T15:26:45;99912.97;;;18.64;38.20
63554;BME280;49699;48.072;7.800;2022-09-21T15:29:23;99912.00;;;18.65;38.18
63554;BME280;49699;48.072;7.800;2022-09-21T15:31:49;99902.59;;;18.62;38.26
63554;BME280;49699;48.072;7.800;2022-09-21T15:34:15;99906.19;;;18.61;38.14
63554;BME280;49699;48.072;7.800;2022-09-21T15:36:42;99913.59;;;18.56;38.09
63554;BME280;49699;48.072;7.800;2022-09-21T15:39:30;99908.13;;;18.48;38.28
63554;BME280;49699;48.072;7.800;2022-09-21T15:44:34;99900.97;;;18.39;37.87
63554;BME280;49699;48.072;7.800;2022-09-21T15:47:01;99900.50;;;18.34;38.26
63554;BME280;49699;48.072;7.800;2022-09-21T15:49:28;99909.63;;;18.30;38.29
63554;BME280;49699;48.072;7.800;2022-09-21T15:52:21;99904.03;;;18.23;38.33
63554;BME280;49699;48.072;7.800;2022-09-21T15:54:53;99905.38;;;18.18;38.39
63554;BME280;49699;48.072;7.800;2022-09-21T15:57:41;99907.66;;;18.11;38.66
63554;BME280;49699;48.072;7.800;2022-09-21T16:02:41;99909.25;;;18.02;39.12
63554;BME280;49699;48.072;7.800;2022-09-21T16:05:13;99911.41;;;17.97;39.01
63554;BME280;49699;48.072;7.800;2022-09-21T16:07:39;99911.78;;;17.93;39.12
63554;BME280;49699;48.072;7.800;2022-09-21T16:10:37;99916.47;;;17.89;39.15
63554;BME280;49699;48.072;7.800;2022-09-21T16:13:23;99920.44;;;17.84;39.44
63554;BME280;49699;48.072;7.800;2022-09-21T16:16:10;99913.97;;;17.77;39.57
63554;BME280;49699;48.072;7.800;2022-09-21T16:18:44;99915.19;;;17.73;39.79